createdAt,value
2023-01-20T00:00:44.485Z,100796.06
2023-01-20T00:03:14.554Z,100788.34
2023-01-20T00:05:53.846Z,100796.94
2023-01-20T00:08:23.784Z,100794.00
2023-01-20T00:10:53.647Z,100793.19
2023-01-20T00:13:23.425Z,100800.69
2023-01-20T00:15:53.579Z,100806.63
2023-01-20T00:18:28.954Z,100804.75
2023-01-20T00:21:05.458Z,100810.09
2023-01-20T00:23:35.482Z,100815.19
2023-01-20T00:26:12.703Z,100817.59
2023-01-20T00:28:42.755Z,100820.53
2023-01-20T00:31:22.717Z,100820.53
2023-01-20T00:33:55.245Z,100818.41
2023-01-20T00:36:29.352Z,100820.03
2023-01-20T00:38:59.205Z,100816.84
2023-01-20T00:41:29.584Z,100814.19
2023-01-20T00:44:01.476Z,100825.47
2023-01-20T00:46:31.457Z,100821.72
2023-01-20T00:49:01.914Z,100830.84
2023-01-20T00:51:34.276Z,100829.81
2023-01-20T00:54:03.935Z,100833.03
2023-01-20T00:56:33.957Z,100836.78
2023-01-20T00:59:05.917Z,100836.78
2023-01-20T01:01:37.965Z,100841.06
2023-01-20T01:04:08.648Z,100833.84
2023-01-20T01:06:41.760Z,100841.06
2023-01-20T01:09:11.809Z,100849.09
2023-01-20T01:11:46.674Z,100841.59
2023-01-20T01:14:40.425Z,100846.97
2023-01-20T01:17:12.234Z,100842.72
2023-01-20T01:19:42.293Z,100847.53
2023-01-20T01:22:14.738Z,100838.44
2023-01-20T01:24:47.838Z,100842.19
2023-01-20T01:27:19.478Z,100851.28
2023-01-20T01:29:49.167Z,100851.28
2023-01-20T01:32:19.193Z,100858.78
2023-01-20T01:34:51.169Z,100864.16
2023-01-20T01:37:23.548Z,100860.66
2023-01-20T01:39:53.280Z,100862.53
2023-01-20T01:42:26.922Z,100870.56
2023-01-20T01:45:24.781Z,100864.13
2023-01-20T01:48:03.625Z,100868.47
2023-01-20T01:50:42.267Z,100866.34
2023-01-20T01:53:16.662Z,100869.81
2023-01-20T01:55:50.906Z,100874.91
2023-01-20T01:58:31.794Z,100873.34
2023-01-20T02:01:01.864Z,100879.50
2023-01-20T02:03:39.942Z,100869.59
2023-01-20T02:06:10.484Z,100874.41
2023-01-20T02:08:44.000Z,100882.19
2023-01-20T02:11:16.002Z,100883.25
2023-01-20T02:13:47.355Z,100879.78
2023-01-20T02:16:22.942Z,100883.81
2023-01-20T02:19:10.603Z,100886.75
2023-01-20T02:22:05.925Z,100882.69
2023-01-20T02:25:08.650Z,100884.03
2023-01-20T02:28:08.389Z,100889.09
2023-01-20T02:30:53.454Z,100886.47
2023-01-20T02:33:33.321Z,100895.88
2023-01-20T02:36:11.320Z,100911.94
2023-01-20T02:38:47.382Z,100906.84
2023-01-20T02:41:23.693Z,100909.78
2023-01-20T02:44:02.927Z,100909.78
2023-01-20T02:46:36.773Z,100908.66
2023-01-20T02:49:17.735Z,100903.31
2023-01-20T02:51:53.765Z,100912.41
2023-01-20T02:54:29.205Z,100914.81
2023-01-20T02:57:01.591Z,100912.94
2023-01-20T02:59:36.063Z,100916.69
2023-01-20T03:02:12.181Z,100912.94
2023-01-20T03:04:49.963Z,100919.91
2023-01-20T03:07:23.479Z,100915.63
2023-01-20T03:09:56.389Z,100912.72
2023-01-20T03:12:32.239Z,100912.47
2023-01-20T03:15:02.261Z,100912.19
2023-01-20T03:17:35.609Z,100909.25
2023-01-20T03:20:09.515Z,100916.22
2023-01-20T03:22:39.903Z,100908.75
2023-01-20T03:25:11.709Z,100921.09
2023-01-20T03:27:44.032Z,100922.69
2023-01-20T03:30:16.516Z,100928.06
2023-01-20T03:32:49.187Z,100928.06
2023-01-20T03:35:22.293Z,100927.75
2023-01-20T03:37:52.763Z,100935.56
2023-01-20T03:40:23.556Z,100933.94
2023-01-20T03:43:01.934Z,100933.94
2023-01-20T03:45:40.138Z,100942.22
2023-01-20T03:48:15.656Z,100937.66
2023-01-20T03:50:58.451Z,100943.50
2023-01-20T03:53:37.553Z,100940.31
2023-01-20T03:56:18.248Z,100948.91
2023-01-20T03:58:54.308Z,100954.25
2023-01-20T04:01:28.125Z,100951.06
2023-01-20T04:03:59.149Z,100952.44
2023-01-20T04:06:34.809Z,100947.88
2023-01-20T04:09:10.105Z,100951.09
2023-01-20T04:11:40.177Z,100952.16
2023-01-20T04:14:12.193Z,100952.72
2023-01-20T04:16:42.621Z,100953.03
2023-01-20T04:19:14.775Z,100937.22
2023-01-20T04:21:52.047Z,100949.88
2023-01-20T04:24:29.334Z,100947.44
2023-01-20T04:27:00.443Z,100952.25
2023-01-20T04:29:30.481Z,100958.66
2023-01-20T04:32:05.632Z,100958.66
2023-01-20T04:34:35.913Z,100957.06
2023-01-20T04:37:08.277Z,100958.66
2023-01-20T04:39:38.009Z,100962.47
2023-01-20T04:42:08.637Z,100966.75
2023-01-20T04:44:50.638Z,100960.59
2023-01-20T04:47:20.522Z,100962.47
2023-01-20T04:49:50.288Z,100965.13
2023-01-20T04:52:23.168Z,100964.34
2023-01-20T04:54:53.102Z,100973.72
2023-01-20T04:57:25.479Z,100970.53
2023-01-20T04:59:57.243Z,100972.69
2023-01-20T05:02:27.527Z,100974.31
2023-01-20T05:04:57.451Z,100977.25
2023-01-20T05:07:29.926Z,100983.41
2023-01-20T05:09:59.669Z,100984.22
2023-01-20T05:12:29.423Z,100986.66
2023-01-20T05:14:59.215Z,100996.81
2023-01-20T05:17:30.946Z,100990.91
2023-01-20T05:20:00.842Z,100992.53
2023-01-20T05:22:33.738Z,100994.94
2023-01-20T05:25:04.047Z,100994.94
2023-01-20T05:27:33.764Z,100999.50
2023-01-20T05:30:05.723Z,100997.38
2023-01-20T05:32:35.657Z,100994.19
2023-01-20T05:35:05.482Z,100996.88
2023-01-20T05:37:37.939Z,100998.97
2023-01-20T05:40:09.176Z,101010.22
2023-01-20T05:42:39.396Z,101004.88
2023-01-20T05:45:10.777Z,101003.75
2023-01-20T05:47:41.321Z,101008.28
2023-01-20T05:50:16.249Z,101014.13
2023-01-20T05:52:49.507Z,101013.88
2023-01-20T05:55:19.909Z,101023.56
2023-01-20T05:57:49.792Z,101022.47
2023-01-20T06:00:21.665Z,101021.41
2023-01-20T06:02:53.745Z,101032.69
2023-01-20T06:05:27.009Z,101026.81
2023-01-20T06:08:00.983Z,101029.25
2023-01-20T06:10:31.263Z,101037.53
2023-01-20T06:13:01.415Z,101041.84
2023-01-20T06:15:32.642Z,101035.41
2023-01-20T06:18:02.375Z,101042.38
2023-01-20T06:20:32.838Z,101049.88
2023-01-20T06:23:05.182Z,101051.50
2023-01-20T06:25:34.892Z,101048.25
2023-01-20T06:28:06.545Z,101048.81
2023-01-20T06:30:36.426Z,101048.75
2023-01-20T06:33:10.688Z,101047.44
2023-01-20T06:35:40.694Z,101050.94
2023-01-20T06:38:13.188Z,101057.34
2023-01-20T06:40:42.983Z,101063.31
2023-01-20T06:43:12.822Z,101050.44
2023-01-20T06:45:42.707Z,101054.16
2023-01-20T06:48:13.841Z,101055.78
2023-01-20T06:50:43.843Z,101059.00
2023-01-20T06:53:17.667Z,101066.50
2023-01-20T06:55:47.470Z,101066.78
2023-01-20T06:58:22.223Z,101070.50
2023-01-20T07:00:52.110Z,101071.25
2023-01-20T07:03:24.328Z,101073.94
2023-01-20T07:05:59.238Z,101066.97
2023-01-20T07:08:34.348Z,101071.81
2023-01-20T07:11:04.207Z,101071.31
2023-01-20T07:13:34.550Z,101072.94
2023-01-20T07:16:04.957Z,101080.72
2023-01-20T07:18:34.722Z,101071.34
2023-01-20T07:21:07.540Z,101070.31
2023-01-20T07:23:42.213Z,101072.41
2023-01-20T07:26:13.815Z,101076.41
2023-01-20T07:28:43.548Z,101079.91
2023-01-20T07:31:15.774Z,101095.06
2023-01-20T07:33:46.475Z,101095.91
2023-01-20T07:36:17.548Z,101087.59
2023-01-20T07:38:53.451Z,101099.94
2023-01-20T07:41:24.113Z,101105.31
2023-01-20T07:43:56.596Z,101100.75
2023-01-20T07:46:26.456Z,101103.44
2023-01-20T07:48:56.356Z,101113.59
2023-01-20T07:51:26.167Z,101113.34
2023-01-20T07:53:58.518Z,101116.31
2023-01-20T07:56:30.931Z,101115.22
2023-01-20T07:59:01.444Z,101124.81
2023-01-20T08:01:33.168Z,101128.56
2023-01-20T08:04:03.710Z,101142.41
2023-01-20T08:06:33.780Z,101136.03
2023-01-20T08:09:09.276Z,101143.00
2023-01-20T08:11:39.170Z,101144.63
2023-01-20T08:14:09.099Z,101149.44
2023-01-20T08:16:41.790Z,101161.72
2023-01-20T08:19:11.797Z,101164.91
2023-01-20T08:21:41.491Z,101160.09
2023-01-20T08:24:15.971Z,101153.66
2023-01-20T08:26:45.996Z,101164.44
2023-01-20T08:29:15.778Z,101168.25
2023-01-20T08:31:45.695Z,101172.03
2023-01-20T08:34:15.704Z,101166.75
2023-01-20T08:36:45.463Z,101164.34
2023-01-20T08:39:20.204Z,101164.66
2023-01-20T08:41:51.283Z,101170.53
2023-01-20T08:44:21.674Z,101168.34
2023-01-20T08:46:52.744Z,101180.63
2023-01-20T08:49:24.161Z,101175.28
2023-01-20T08:51:55.502Z,101175.28
2023-01-20T08:54:29.789Z,101187.56
2023-01-20T08:56:59.584Z,101182.16
2023-01-20T08:59:29.566Z,101183.28
2023-01-20T09:01:59.536Z,101182.75
2023-01-20T09:04:29.373Z,101186.56
2023-01-20T09:06:59.235Z,101183.38
2023-01-20T09:09:31.938Z,101190.88
2023-01-20T09:12:02.078Z,101191.97
2023-01-20T09:14:31.899Z,101205.38
2023-01-20T09:17:02.879Z,101198.97
2023-01-20T09:19:33.176Z,101200.78
2023-01-20T09:22:03.575Z,101195.09
2023-01-20T09:24:35.948Z,101200.97
2023-01-20T09:27:05.827Z,101197.47
2023-01-20T09:29:36.500Z,101192.66
2023-01-20T09:32:06.629Z,101201.53
2023-01-20T09:34:36.566Z,101196.16
2023-01-20T09:37:18.744Z,101190.72
2023-01-20T09:40:04.115Z,101203.66
2023-01-20T09:42:56.517Z,101200.97
2023-01-20T09:45:30.860Z,101202.69
2023-01-20T09:48:15.430Z,101199.72
2023-01-20T09:51:04.713Z,101204.34
2023-01-20T09:53:50.751Z,101211.31
2023-01-20T09:56:27.492Z,101209.78
2023-01-20T09:59:04.033Z,101198.88
2023-01-20T10:01:38.957Z,101201.84
2023-01-20T10:04:17.364Z,101205.38
2023-01-20T10:06:50.574Z,101204.53
2023-01-20T10:09:28.068Z,101216.75
2023-01-20T10:12:08.922Z,101219.00
2023-01-20T10:14:43.873Z,101218.19
2023-01-20T10:17:18.035Z,101220.13
2023-01-20T10:19:56.524Z,101219.06
2023-01-20T10:22:32.489Z,101210.53
2023-01-20T10:25:07.217Z,101216.53
2023-01-20T10:27:45.501Z,101217.66
2023-01-20T10:30:20.343Z,101208.78
2023-01-20T10:32:56.900Z,101214.44
2023-01-20T10:35:29.778Z,101210.41
2023-01-20T10:37:59.694Z,101207.47
2023-01-20T10:40:38.027Z,101211.22
2023-01-20T10:43:15.086Z,101206.13
2023-01-20T10:46:01.656Z,101199.19
2023-01-20T10:48:50.601Z,101189.81
2023-01-20T10:51:30.212Z,101194.72
2023-01-20T10:54:17.391Z,101193.63
2023-01-20T10:56:54.026Z,101199.53
2023-01-20T10:59:32.273Z,101189.94
2023-01-20T11:02:12.139Z,101196.38
2023-01-20T11:04:42.582Z,101204.75
2023-01-20T11:07:19.230Z,101205.50
2023-01-20T11:09:51.910Z,101200.19
2023-01-20T11:12:25.322Z,101203.16
2023-01-20T11:15:02.657Z,101205.59
2023-01-20T11:17:32.572Z,101206.69
2023-01-20T11:20:08.709Z,101202.94
2023-01-20T11:22:40.423Z,101205.66
2023-01-20T11:25:27.240Z,101202.19
2023-01-20T11:27:58.294Z,101208.31
2023-01-20T11:30:34.413Z,101207.81
2023-01-20T11:33:12.221Z,101207.81
2023-01-20T11:35:42.290Z,101206.25
2023-01-20T11:38:26.094Z,101199.56
2023-01-20T11:40:57.655Z,101206.84
2023-01-20T11:43:32.679Z,101207.38
2023-01-20T11:46:25.770Z,101211.09
2023-01-20T11:49:20.035Z,101211.09
2023-01-20T11:51:53.388Z,101203.63
2023-01-20T11:54:25.891Z,101206.31
2023-01-20T11:56:59.894Z,101195.88
2023-01-20T11:59:32.172Z,101200.72
2023-01-20T12:02:24.809Z,101203.66
2023-01-20T12:05:06.451Z,101196.69
2023-01-20T12:07:42.669Z,101195.03
2023-01-20T12:10:20.202Z,101206.63
2023-01-20T12:12:55.423Z,101196.16
2023-01-20T12:15:28.843Z,101201.03
2023-01-20T12:18:04.461Z,101193.50
2023-01-20T12:20:54.190Z,101203.44
2023-01-20T12:23:34.597Z,101206.41
2023-01-20T12:26:07.589Z,101210.66
2023-01-20T12:28:45.754Z,101206.91
2023-01-20T12:31:20.668Z,101205.28
2023-01-20T12:33:57.160Z,101203.16
2023-01-20T12:36:47.928Z,101204.78
2023-01-20T12:39:48.272Z,101216.03
2023-01-20T12:42:59.022Z,101210.38
2023-01-20T12:45:45.335Z,101214.16
2023-01-20T12:48:33.649Z,101217.13
2023-01-20T12:51:22.655Z,101214.50
2023-01-20T12:54:08.684Z,101221.72
2023-01-20T12:56:51.158Z,101219.34
2023-01-20T12:59:38.381Z,101218.22
2023-01-20T13:02:37.832Z,101210.44
2023-01-20T13:05:28.310Z,101218.22
2023-01-20T13:08:13.813Z,101223.59
2023-01-20T13:11:06.165Z,101226.25
2023-01-20T13:13:57.414Z,101223.00
2023-01-20T13:16:35.574Z,101218.75
2023-01-20T13:19:14.059Z,101227.34
2023-01-20T13:21:43.936Z,101228.47
2023-01-20T13:24:29.410Z,101227.13
2023-01-20T13:27:01.023Z,101234.91
2023-01-20T13:29:45.628Z,101236.00
2023-01-20T13:32:31.491Z,101232.22
2023-01-20T13:35:03.181Z,101236.78
2023-01-20T13:37:38.331Z,101229.53
2023-01-20T13:40:58.858Z,101232.72
2023-01-20T13:43:40.377Z,101239.69
2023-01-20T13:46:40.203Z,101239.97
2023-01-20T13:49:39.612Z,101241.84
2023-01-20T13:52:14.963Z,101245.88
2023-01-20T13:54:47.187Z,101249.94
2023-01-20T13:57:40.937Z,101251.25
2023-01-20T14:00:21.520Z,101251.56
2023-01-20T14:02:53.275Z,101261.28
2023-01-20T14:05:32.436Z,101261.81
2023-01-20T14:08:03.003Z,101260.75
2023-01-20T14:10:32.789Z,101266.13
2023-01-20T14:13:12.131Z,101267.19
2023-01-20T14:15:42.986Z,101269.59
2023-01-20T14:18:18.923Z,101266.66
2023-01-20T14:21:03.326Z,101269.28
2023-01-20T14:23:39.227Z,101273.59
2023-01-20T14:26:14.933Z,101284.66
2023-01-20T14:28:51.742Z,101277.41
2023-01-20T14:31:24.711Z,101276.06
2023-01-20T14:34:00.721Z,101288.72
2023-01-20T14:36:34.970Z,101297.84
2023-01-20T14:39:09.663Z,101299.16
2023-01-20T14:41:50.785Z,101301.03
2023-01-20T14:44:25.416Z,101309.63
2023-01-20T14:46:57.089Z,101317.16
2023-01-20T14:49:33.603Z,101321.34
2023-01-20T14:52:04.184Z,101316.56
2023-01-20T14:54:38.772Z,101327.28
2023-01-20T14:57:21.724Z,101327.78
2023-01-20T15:00:05.438Z,101339.56
2023-01-20T15:02:37.674Z,101339.56
2023-01-20T15:05:22.782Z,101341.16
2023-01-20T15:07:52.593Z,101345.53
2023-01-20T15:10:22.682Z,101360.63
2023-01-20T15:12:57.165Z,101360.63
2023-01-20T15:15:32.638Z,101360.03
2023-01-20T15:18:24.533Z,101368.81
2023-01-20T15:21:11.798Z,101365.94
2023-01-20T15:23:52.486Z,101372.38
2023-01-20T15:26:29.048Z,101382.03
2023-01-20T15:29:00.101Z,101386.00
2023-01-20T15:31:32.768Z,101390.53
2023-01-20T15:34:02.478Z,101393.78
2023-01-20T15:36:37.199Z,101386.28
2023-01-20T15:39:07.021Z,101399.44
2023-01-20T15:41:36.874Z,101409.38
2023-01-20T15:44:06.953Z,101416.94
2023-01-20T15:46:39.435Z,101414.25
2023-01-20T15:49:09.301Z,101412.66
2023-01-20T15:51:39.129Z,101427.41
2023-01-20T15:54:09.482Z,101423.41
2023-01-20T15:56:42.352Z,101432.03
2023-01-20T15:59:15.209Z,101436.84
2023-01-20T16:01:50.323Z,101437.66
2023-01-20T16:04:21.324Z,101444.34
2023-01-20T16:06:51.102Z,101452.94
2023-01-20T16:09:27.637Z,101460.97
2023-01-20T16:11:57.532Z,101453.97
2023-01-20T16:14:28.542Z,101467.34
2023-01-20T16:17:00.912Z,101475.16
2023-01-20T16:19:30.888Z,101472.16
2023-01-20T16:22:00.781Z,101475.91
2023-01-20T16:24:30.662Z,101482.34
2023-01-20T16:27:00.617Z,101488.69
2023-01-20T16:29:30.436Z,101484.47
2023-01-20T16:32:03.061Z,101494.69
2023-01-20T16:34:33.127Z,101496.00
2023-01-20T16:37:03.276Z,101506.75
2023-01-20T16:39:33.200Z,101510.50
2023-01-20T16:42:03.421Z,101517.50
2023-01-20T16:44:33.769Z,101513.38
2023-01-20T16:47:06.770Z,101516.00
2023-01-20T16:49:36.891Z,101521.28
2023-01-20T16:52:07.339Z,101512.69
2023-01-20T16:54:38.345Z,101531.91
2023-01-20T16:57:11.149Z,101530.47
2023-01-20T16:59:41.167Z,101538.38
2023-01-20T17:02:14.674Z,101540.22
2023-01-20T17:04:44.481Z,101550.97
2023-01-20T17:07:14.717Z,101555.31
2023-01-20T17:09:46.026Z,101563.09
2023-01-20T17:12:17.149Z,101564.97
2023-01-20T17:14:46.937Z,101571.41
2023-01-20T17:17:19.605Z,101574.09
2023-01-20T17:19:49.486Z,101577.16
2023-01-20T17:22:20.341Z,101584.00
2023-01-20T17:24:50.284Z,101586.59
2023-01-20T17:27:20.071Z,101585.13
2023-01-20T17:29:50.062Z,101596.69
2023-01-20T17:32:22.742Z,101597.72
2023-01-20T17:34:52.775Z,101606.13
2023-01-20T17:37:22.589Z,101607.75
2023-01-20T17:39:52.350Z,101612.84
2023-01-20T17:42:22.359Z,101607.75
2023-01-20T17:44:52.084Z,101619.44
2023-01-20T17:47:24.621Z,101617.47
2023-01-20T17:49:54.560Z,101623.34
2023-01-20T17:52:24.700Z,101632.44
2023-01-20T17:54:55.436Z,101632.59
2023-01-20T17:57:27.017Z,101638.41
2023-01-20T17:59:57.280Z,101643.22
2023-01-20T18:02:29.808Z,101646.41
2023-01-20T18:04:59.913Z,101660.25
2023-01-20T18:07:29.736Z,101657.25
2023-01-20T18:10:01.601Z,101664.75
2023-01-20T18:12:31.582Z,101670.09
2023-01-20T18:15:04.524Z,101672.53
2023-01-20T18:17:38.253Z,101678.72
2023-01-20T18:20:09.838Z,101686.19
2023-01-20T18:22:39.798Z,101692.56
2023-01-20T18:25:10.090Z,101676.41
2023-01-20T18:27:40.211Z,101690.28
2023-01-20T18:30:11.845Z,101697.19
2023-01-20T18:32:44.486Z,101698.69
2023-01-20T18:35:14.593Z,101705.59
2023-01-20T18:37:44.360Z,101703.38
2023-01-20T18:40:15.609Z,101710.50
2023-01-20T18:42:45.950Z,101707.94
2023-01-20T18:45:15.834Z,101712.59
2023-01-20T18:47:48.575Z,101718.69
2023-01-20T18:50:19.812Z,101731.50
2023-01-20T18:52:49.563Z,101731.28
2023-01-20T18:55:19.775Z,101734.75
2023-01-20T18:57:49.558Z,101736.63
2023-01-20T19:00:20.357Z,101736.28
2023-01-20T19:02:55.364Z,101742.34
2023-01-20T19:05:25.180Z,101740.13
2023-01-20T19:07:55.097Z,101750.25
2023-01-20T19:10:25.012Z,101751.19
2023-01-20T19:12:55.228Z,101754.34
2023-01-20T19:15:25.078Z,101763.88
2023-01-20T19:17:57.529Z,101762.13
2023-01-20T19:20:27.410Z,101774.34
2023-01-20T19:22:57.544Z,101774.22
2023-01-20T19:25:31.619Z,101792.38
2023-01-20T19:28:01.742Z,101790.72
2023-01-20T19:30:31.712Z,101789.72
2023-01-20T19:33:04.510Z,101789.72
2023-01-20T19:35:34.938Z,101807.03
2023-01-20T19:38:05.061Z,101806.69
2023-01-20T19:40:35.064Z,101814.56
2023-01-20T19:43:05.155Z,101815.88
2023-01-20T19:45:45.863Z,101811.41
2023-01-20T19:48:19.100Z,101820.13
2023-01-20T19:50:49.484Z,101825.94
2023-01-20T19:53:19.421Z,101826.63
2023-01-20T19:55:49.976Z,101836.34
2023-01-20T19:58:20.054Z,101841.34
2023-01-20T20:00:50.123Z,101844.25
2023-01-20T20:03:22.766Z,101849.63
2023-01-20T20:05:52.816Z,101849.63
2023-01-20T20:08:22.898Z,101855.78
2023-01-20T20:10:53.105Z,101862.38
2023-01-20T20:13:22.905Z,101862.84
2023-01-20T20:15:53.344Z,101873.78
2023-01-20T20:18:26.910Z,101872.34
2023-01-20T20:20:56.860Z,101875.47
2023-01-20T20:23:28.242Z,101881.06
2023-01-20T20:25:58.504Z,101887.06
2023-01-20T20:28:30.058Z,101890.22
2023-01-20T20:31:07.670Z,101895.97
2023-01-20T20:33:40.411Z,101894.81
2023-01-20T20:36:13.506Z,101898.97
2023-01-20T20:38:43.898Z,101905.78
2023-01-20T20:41:13.757Z,101903.56
2023-01-20T20:43:43.832Z,101910.53
2023-01-20T20:46:16.672Z,101910.53
2023-01-20T20:48:49.535Z,101917.59
2023-01-20T20:51:20.202Z,101911.88
2023-01-20T20:53:49.971Z,101922.78
2023-01-20T20:56:19.802Z,101922.41
2023-01-20T20:59:00.900Z,101927.97
2023-01-20T21:01:32.893Z,101934.59
2023-01-20T21:04:06.289Z,101932.13
2023-01-20T21:06:36.827Z,101937.09
2023-01-20T21:09:06.923Z,101940.81
2023-01-20T21:11:38.370Z,101945.53
2023-01-20T21:14:08.455Z,101950.28
2023-01-20T21:16:38.320Z,101946.56
2023-01-20T21:19:10.911Z,101956.22
2023-01-20T21:21:40.996Z,101972.06
2023-01-20T21:24:14.071Z,101972.88
2023-01-20T21:26:43.982Z,101976.59
2023-01-20T21:29:14.295Z,101984.81
2023-01-20T21:31:44.361Z,101988.50
2023-01-20T21:34:19.216Z,101991.41
2023-01-20T21:36:49.306Z,101996.75
2023-01-20T21:39:20.730Z,102004.19
2023-01-20T21:41:50.567Z,101997.63
2023-01-20T21:44:33.074Z,102007.72
2023-01-20T21:47:04.702Z,102007.53
2023-01-20T21:49:50.010Z,102009.84
2023-01-20T21:52:34.482Z,102014.38
2023-01-20T21:55:04.957Z,102014.56
2023-01-20T21:57:35.607Z,102028.72
2023-01-20T22:00:08.752Z,102033.47
2023-01-20T22:02:38.720Z,102031.84
2023-01-20T22:05:12.371Z,102038.44
2023-01-20T22:07:43.961Z,102043.38
2023-01-20T22:10:14.792Z,102041.75
2023-01-20T22:12:44.946Z,102047.09
2023-01-20T22:15:15.118Z,102050.81
2023-01-20T22:17:45.489Z,102055.56
2023-01-20T22:20:20.524Z,102052.88
2023-01-20T22:22:50.338Z,102049.59
2023-01-20T22:25:20.145Z,102062.34
2023-01-20T22:27:51.030Z,102065.25
2023-01-20T22:30:21.231Z,102062.16
2023-01-20T22:32:51.745Z,102067.72
2023-01-20T22:35:24.276Z,102071.22
2023-01-20T22:37:54.287Z,102070.16
2023-01-20T22:40:24.187Z,102076.13
2023-01-20T22:42:53.939Z,102078.19
2023-01-20T22:45:23.745Z,102075.72
2023-01-20T22:47:53.479Z,102081.28
2023-01-20T22:50:26.393Z,102092.38
2023-01-20T22:52:56.170Z,102092.59
2023-01-20T22:55:25.879Z,102097.34
2023-01-20T22:57:55.627Z,102096.94
2023-01-20T23:00:25.512Z,102101.66
2023-01-20T23:02:55.236Z,102110.13
2023-01-20T23:05:27.906Z,102107.66
2023-01-20T23:07:57.639Z,102113.81
2023-01-20T23:10:39.734Z,102117.31
2023-01-20T23:13:09.771Z,102120.34
2023-01-20T23:15:39.590Z,102122.00
2023-01-20T23:18:09.858Z,102132.25
2023-01-20T23:20:42.407Z,102136.56
2023-01-20T23:23:12.592Z,102135.53
2023-01-20T23:25:42.819Z,102142.72
2023-01-20T23:28:12.981Z,102160.59
2023-01-20T23:30:43.203Z,102161.84
2023-01-20T23:33:13.142Z,102155.88
2023-01-20T23:35:45.569Z,102166.78
2023-01-20T23:38:15.282Z,102172.53
2023-01-20T23:40:44.946Z,102175.22
2023-01-20T23:43:14.727Z,102176.22
2023-01-20T23:45:44.702Z,102179.09
2023-01-20T23:48:14.501Z,102186.28
2023-01-20T23:50:47.067Z,102183.63
2023-01-20T23:53:16.893Z,102200.47
2023-01-20T23:55:48.510Z,102204.97
2023-01-20T23:58:18.570Z,102201.72
